This is the latest recevied weather packets stored in our database for station/object TG8AKV-17. If no packets are shown the sender has not sent any weather packets the latest 10 day(s).
| Time | Temp. | Humidity | Pressure | Rain* | Wind** | Luminosity | Snow |
|---|---|---|---|---|---|---|---|
| 1777688684 | 15° C | 91% | 1015 hPa | 0 mm | - | - | - |
| 1777688083 | 15° C | 90% | 1015 hPa | 0 mm | - | - | - |
| 1777687483 | 15° C | 90% | 1015 hPa | 0 mm | - | - | - |
| 1777686882 | 15° C | 90% | 1015 hPa | 0 mm | - | - | - |
| 1777686281 | 15° C | 90% | 1015 hPa | 0 mm | - | - | - |
| 1777685680 | 15° C | 90% | 1015 hPa | 0 mm | - | - | - |
| 1777685080 | 15° C | 90% | 1014 hPa | 0 mm | - | - | - |
| 1777684479 | 15° C | 90% | 1014 hPa | 0 mm | - | - | - |
| 1777683879 | 15° C | 89% | 1014 hPa | 0 mm | - | - | - |
| 1777683278 | 15° C | 92% | 1014 hPa | 0 mm | - | - | - |
| 1777682678 | 15° C | 94% | 1014 hPa | 0 mm | - | - | - |
| 1777682077 | 18.33° C | 76% | 1014 hPa | 0 mm | - | - | - |
| 1777681477 | 17.78° C | 77% | 1013 hPa | 0 mm | - | - | - |
| 1777680876 | 17.22° C | 82% | 1013 hPa | 0 mm | - | - | - |
| 1777680276 | 15.56° C | 89% | 1013 hPa | 0 mm | - | - | - |
| 1777679675 | 15.56° C | 90% | 1013 hPa | 0 mm | - | - | - |
| 1777679074 | 15.56° C | 93% | 1013 hPa | 0 mm | - | - | - |
| 1777678474 | 19.44° C | 73% | 1013 hPa | 0 mm | - | - | - |
| 1777677873 | 20° C | 69% | 1013 hPa | 0 mm | - | - | - |
| 1777677273 | 20° C | 69% | 1013 hPa | 0 mm | - | - | - |
| 1777676672 | 18.89° C | 78% | 1013 hPa | 0 mm | - | - | - |
| 1777676071 | 17.78° C | 87% | 1013 hPa | 0 mm | - | - | - |
| 1777675471 | 17.78° C | 90% | 1013 hPa | 0 mm | - | - | - |
| 1777674870 | 17.78° C | 89% | 1013 hPa | 0 mm | - | - | - |
| 1777674270 | 17.78° C | 88% | 1012 hPa | 0 mm | - | - | - |
* Rain latest hour (hover to see other rain measurements)
** Current wind speed in m/s (hover to see current wind gust speed)